Time;durP1;ratioP1;P1;durP2;ratioP2;P2;SDS_P1;SDS_P2;PMS_P1;PMS_P2;Temp;Humidity;BMP_temperature;BMP_pressure;BME280_temperature;BME280_humidity;BME280_pressure;Samples;Min_cycle;Max_cycle;Signal;HPM_P1;HPM_P2
2022/03/06 00:02:07;;;;;;;16.27;8.90;;;;;;;;;;5121214;28;20047;-87
2022/03/06 00:04:33;;;;;;;14.65;8.93;;;;;;;;;;5119951;28;20019;-87
2022/03/06 00:06:59;;;;;;;15.88;8.77;;;;;;;;;;5121003;28;20028;-86
2022/03/06 00:09:25;;;;;;;15.75;9.10;;;;;;;;;;5120970;28;20051;-87
2022/03/06 00:11:51;;;;;;;15.35;9.10;;;;;;;;;;5121367;28;20031;-87
2022/03/06 00:14:17;;;;;;;15.13;8.10;;;;;;;;;;5120844;28;20045;-87
2022/03/06 00:16:44;;;;;;;17.42;9.82;;;;;;;;;;5119436;28;20122;-87
2022/03/06 00:19:10;;;;;;;17.75;10.10;;;;;;;;;;5121073;28;20321;-87
2022/03/06 00:21:36;;;;;;;21.40;10.45;;;;;;;;;;5118622;28;20193;-86
2022/03/06 00:24:02;;;;;;;15.18;8.75;;;;;;;;;;5121006;28;20020;-87
2022/03/06 00:26:28;;;;;;;14.13;7.82;;;;;;;;;;5120523;28;20394;-90
2022/03/06 00:28:54;;;;;;;13.18;7.68;;;;;;;;;;5120870;28;20081;-92
2022/03/06 00:31:23;;;;;;;13.95;8.82;;;;;;;;;;5120823;28;20030;-91
2022/03/06 00:33:49;;;;;;;15.57;9.25;;;;;;;;;;5119509;28;20424;-92
2022/03/06 00:36:15;;;;;;;14.98;9.00;;;;;;;;;;5120504;28;20051;-91
2022/03/06 00:38:41;;;;;;;17.02;8.52;;;;;;;;;;5120476;28;20394;-92
2022/03/06 00:41:07;;;;;;;15.98;8.63;;;;;;;;;;5120678;28;20042;-91
2022/03/06 00:43:33;;;;;;;13.48;8.30;;;;;;;;;;5120413;28;20020;-91
2022/03/06 00:46:00;;;;;;;13.55;8.02;;;;;;;;;;5120282;28;20051;-92
2022/03/06 00:48:26;;;;;;;15.65;8.88;;;;;;;;;;5119212;28;20470;-93
2022/03/06 00:50:52;;;;;;;18.27;9.85;;;;;;;;;;5119784;28;20035;-91
2022/03/06 00:53:18;;;;;;;16.50;9.43;;;;;;;;;;5120113;28;20401;-91
2022/03/06 00:55:44;;;;;;;14.85;8.68;;;;;;;;;;5120097;28;20020;-92
2022/03/06 00:58:10;;;;;;;16.95;9.18;;;;;;;;;;5119695;28;20035;-91
2022/03/06 01:00:39;;;;;;;15.85;9.00;;;;;;;;;;5119908;28;20043;-91
2022/03/06 01:03:06;;;;;;;20.48;9.55;;;;;;;;;;5120084;28;20030;-93
2022/03/06 01:05:32;;;;;;;21.85;9.68;;;;;;;;;;5118928;28;20099;-91
2022/03/06 01:07:58;;;;;;;16.92;9.35;;;;;;;;;;5120140;28;20498;-90
2022/03/06 01:10:25;;;;;;;19.75;9.13;;;;;;;;;;5120047;28;20032;-91
2022/03/06 01:12:52;;;;;;;18.38;9.32;;;;;;;;;;5119888;28;20016;-90
2022/03/06 01:15:18;;;;;;;21.08;10.32;;;;;;;;;;5119757;28;20123;-92
2022/03/06 01:17:44;;;;;;;17.85;10.23;;;;;;;;;;5119580;28;20023;-93
2022/03/06 01:20:11;;;;;;;15.55;9.38;;;;;;;;;;5119790;28;20073;-92
2022/03/06 01:22:37;;;;;;;16.67;8.90;;;;;;;;;;5119492;28;20027;-91
2022/03/06 01:25:03;;;;;;;17.90;8.93;;;;;;;;;;5119843;28;20062;-92
2022/03/06 01:27:29;;;;;;;20.65;8.15;;;;;;;;;;5118215;28;20042;-92
2022/03/06 01:29:55;;;;;;;17.20;8.70;;;;;;;;;;5118500;28;20027;-92
2022/03/06 01:32:21;;;;;;;16.08;8.90;;;;;;;;;;5119194;28;20381;-91
2022/03/06 01:34:47;;;;;;;14.40;8.60;;;;;;;;;;5118624;28;20035;-91
2022/03/06 01:37:13;;;;;;;13.63;7.90;;;;;;;;;;5119462;28;20024;-92
2022/03/06 01:39:39;;;;;;;15.65;8.43;;;;;;;;;;5118399;28;20056;-92
2022/03/06 01:42:06;;;;;;;15.70;8.20;;;;;;;;;;5118074;28;20024;-92
2022/03/06 01:44:32;;;;;;;16.30;8.63;;;;;;;;;;5119612;28;20355;-91
2022/03/06 01:46:58;;;;;;;16.63;9.00;;;;;;;;;;5118386;28;20409;-92
2022/03/06 01:49:24;;;;;;;18.30;10.32;;;;;;;;;;5118206;28;20028;-91
2022/03/06 01:51:50;;;;;;;21.25;11.90;;;;;;;;;;5117955;28;20039;-91
2022/03/06 01:54:16;;;;;;;20.38;11.48;;;;;;;;;;5117764;28;20074;-93
2022/03/06 01:56:42;;;;;;;26.02;11.10;;;;;;;;;;5117884;28;20028;-91
2022/03/06 01:59:09;;;;;;;29.85;12.25;;;;;;;;;;5118019;28;20406;-94
2022/03/06 02:01:35;;;;;;;31.55;13.48;;;;;;;;;;5121085;27;20051;-91
2022/03/06 02:04:02;;;;;;;30.95;11.82;;;;;;;;;;5121287;27;20023;-94
2022/03/06 02:06:28;;;;;;;29.45;12.13;;;;;;;;;;5139759;27;20384;-91
2022/03/06 02:08:54;;;;;;;24.05;10.32;;;;;;;;;;5139683;27;20035;-92
2022/03/06 02:11:22;;;;;;;25.95;10.90;;;;;;;;;;5139153;27;20031;-91
2022/03/06 02:13:54;;;;;;;22.52;10.52;;;;;;;;;;5139531;27;20030;-92
2022/03/06 02:16:20;;;;;;;23.80;12.70;;;;;;;;;;5139359;27;20061;-92
2022/03/06 02:18:46;;;;;;;21.45;11.20;;;;;;;;;;5120940;27;20355;-92
2022/03/06 02:21:13;;;;;;;20.20;11.48;;;;;;;;;;5120521;27;20035;-92
2022/03/06 02:23:39;;;;;;;21.17;10.75;;;;;;;;;;5120624;27;20032;-93
2022/03/06 02:26:07;;;;;;;18.05;9.80;;;;;;;;;;5121316;27;20355;-91
2022/03/06 02:28:34;;;;;;;15.57;8.82;;;;;;;;;;5138868;27;20023;-92
2022/03/06 02:31:00;;;;;;;17.45;9.55;;;;;;;;;;5139114;27;20098;-91
2022/03/06 02:33:26;;;;;;;17.35;9.93;;;;;;;;;;5120961;27;20039;-90
2022/03/06 02:35:53;;;;;;;18.00;11.05;;;;;;;;;;5138879;27;20023;-91
2022/03/06 02:38:19;;;;;;;16.33;9.55;;;;;;;;;;5139090;27;20062;-90
2022/03/06 02:40:45;;;;;;;17.83;10.40;;;;;;;;;;5138736;27;20061;-93
2022/03/06 02:43:12;;;;;;;15.45;9.15;;;;;;;;;;5138778;27;20019;-93
2022/03/06 02:45:40;;;;;;;16.20;9.80;;;;;;;;;;5138413;27;20409;-91
2022/03/06 02:48:07;;;;;;;19.65;10.05;;;;;;;;;;5138668;27;20030;-93
2022/03/06 02:50:34;;;;;;;17.05;9.07;;;;;;;;;;5138726;27;20023;-94
2022/03/06 02:53:01;;;;;;;16.63;8.77;;;;;;;;;;5138729;28;20054;-93
2022/03/06 02:55:28;;;;;;;12.55;8.20;;;;;;;;;;5138588;28;20499;-92
2022/03/06 02:57:54;;;;;;;14.13;8.35;;;;;;;;;;5120274;28;20117;-92
2022/03/06 03:00:21;;;;;;;13.23;8.25;;;;;;;;;;5138585;28;20031;-93
2022/03/06 03:02:48;;;;;;;15.02;8.25;;;;;;;;;;5138776;28;20026;-93
2022/03/06 03:05:14;;;;;;;14.70;8.93;;;;;;;;;;5120624;28;20097;-94
2022/03/06 03:07:41;;;;;;;13.80;8.63;;;;;;;;;;5120423;28;20062;-93
2022/03/06 03:10:08;;;;;;;15.25;9.52;;;;;;;;;;5138457;28;20031;-91
2022/03/06 03:12:34;;;;;;;17.60;8.95;;;;;;;;;;5138917;28;20023;-93
2022/03/06 03:15:00;;;;;;;15.80;9.20;;;;;;;;;;5138457;28;20463;-91
2022/03/06 03:17:26;;;;;;;14.18;8.75;;;;;;;;;;5138230;28;20095;-92
2022/03/06 03:19:52;;;;;;;16.85;9.60;;;;;;;;;;5138613;28;20023;-92
2022/03/06 03:22:18;;;;;;;15.32;8.95;;;;;;;;;;5120273;28;20038;-93
2022/03/06 03:24:44;;;;;;;15.07;8.32;;;;;;;;;;5138482;28;20063;-93
2022/03/06 03:27:11;;;;;;;15.45;8.70;;;;;;;;;;5138333;28;20030;-92
2022/03/06 03:29:37;;;;;;;15.18;7.95;;;;;;;;;;5137941;28;20015;-91
2022/03/06 03:32:03;;;;;;;15.95;8.95;;;;;;;;;;5138104;28;20051;-93
2022/03/06 03:34:29;;;;;;;15.98;8.32;;;;;;;;;;5120085;28;20413;-91
2022/03/06 03:36:55;;;;;;;14.13;8.35;;;;;;;;;;5138469;28;20038;-92
2022/03/06 03:39:21;;;;;;;12.80;8.27;;;;;;;;;;5138357;28;20019;-92
2022/03/06 03:41:47;;;;;;;15.35;8.55;;;;;;;;;;5119236;28;20321;-92
2022/03/06 03:44:13;;;;;;;14.07;8.48;;;;;;;;;;5138060;28;20389;-92
2022/03/06 03:46:39;;;;;;;17.35;8.70;;;;;;;;;;5119698;28;20028;-91
2022/03/06 03:49:06;;;;;;;16.13;8.63;;;;;;;;;;5137907;28;20026;-91
2022/03/06 03:51:32;;;;;;;14.65;8.07;;;;;;;;;;5137963;27;20480;-92
2022/03/06 03:53:58;;;;;;;14.23;8.30;;;;;;;;;;5138228;28;20019;-93
2022/03/06 03:56:24;;;;;;;15.38;8.75;;;;;;;;;;5120428;27;20045;-91
2022/03/06 03:58:50;;;;;;;13.65;8.57;;;;;;;;;;5141883;27;20031;-93
2022/03/06 04:01:17;;;;;;;15.48;9.10;;;;;;;;;;5141586;27;20129;-92
2022/03/06 04:03:43;;;;;;;15.70;9.25;;;;;;;;;;5141936;27;20102;-93
2022/03/06 04:06:10;;;;;;;15.95;9.68;;;;;;;;;;5141970;27;20039;-91
2022/03/06 04:08:37;;;;;;;18.65;9.93;;;;;;;;;;5141649;27;20092;-92
2022/03/06 04:11:04;;;;;;;20.05;10.85;;;;;;;;;;5123552;27;20027;-94
2022/03/06 04:13:30;;;;;;;18.60;11.00;;;;;;;;;;5141581;27;20058;-93
2022/03/06 04:16:33;;;;;;;29.15;14.82;;;;;;;;;;5123405;27;20065;-93
2022/03/06 04:18:59;;;;;;;;;;;;;;;;;;5118068;27;20038;-92
2022/03/06 04:21:25;;;;;;;20.00;10.80;;;;;;;;;;5123316;27;19988;-94
2022/03/06 04:23:51;;;;;;;19.15;10.55;;;;;;;;;;5141398;27;20447;-92
2022/03/06 04:26:17;;;;;;;15.40;9.40;;;;;;;;;;5141223;27;20102;-93
2022/03/06 04:28:43;;;;;;;14.90;9.40;;;;;;;;;;5123043;27;20026;-94
2022/03/06 04:31:10;;;;;;;18.15;9.90;;;;;;;;;;5141459;27;20038;-94
2022/03/06 04:33:36;;;;;;;16.73;9.70;;;;;;;;;;5141483;27;20027;-93
2022/03/06 04:36:02;;;;;;;23.13;11.80;;;;;;;;;;5141002;27;20393;-96
2022/03/06 04:38:28;;;;;;;23.67;12.35;;;;;;;;;;5140854;27;20027;-95
2022/03/06 04:40:54;;;;;;;24.42;11.63;;;;;;;;;;5141470;27;20023;-93
2022/03/06 04:43:20;;;;;;;18.67;10.85;;;;;;;;;;5123019;27;20027;-92
2022/03/06 04:45:46;;;;;;;17.08;10.27;;;;;;;;;;5141217;27;20019;-92
2022/03/06 04:48:12;;;;;;;17.58;10.27;;;;;;;;;;5141047;27;20022;-93
2022/03/06 04:50:38;;;;;;;18.33;10.18;;;;;;;;;;5119274;27;20109;-94
2022/03/06 04:53:04;;;;;;;18.42;10.20;;;;;;;;;;5117688;27;20429;-93
2022/03/06 04:55:30;;;;;;;18.85;10.18;;;;;;;;;;5122688;27;20023;-93
2022/03/06 04:57:57;;;;;;;15.75;9.73;;;;;;;;;;5140876;27;20401;-91
2022/03/06 05:00:23;;;;;;;17.33;9.38;;;;;;;;;;5122389;27;20307;-91
2022/03/06 05:02:49;;;;;;;16.35;10.00;;;;;;;;;;5140693;27;20023;-92
2022/03/06 05:05:15;;;;;;;18.60;11.02;;;;;;;;;;5140518;27;20016;-91
2022/03/06 05:07:41;;;;;;;18.33;10.75;;;;;;;;;;5122300;27;20031;-91
2022/03/06 05:10:10;;;;;;;19.92;11.63;;;;;;;;;;5122454;27;20026;-91
2022/03/06 05:12:38;;;;;;;18.58;11.05;;;;;;;;;;5140586;27;20031;-93
2022/03/06 05:15:04;;;;;;;24.83;13.75;;;;;;;;;;5140139;27;20023;-93
2022/03/06 05:17:30;;;;;;;30.17;15.02;;;;;;;;;;5121713;27;20038;-91
2022/03/06 05:19:56;;;;;;;30.27;14.77;;;;;;;;;;5140509;27;20023;-92
2022/03/06 05:39:25;;;;;;;24.88;13.38;;;;;;;;;;6230044;23;20019;-96
2022/03/06 05:41:51;;;;;;;25.13;14.15;;;;;;;;;;6229784;23;20043;-93
2022/03/06 05:44:18;;;;;;;24.67;13.48;;;;;;;;;;6228762;23;20758;-92
2022/03/06 05:46:44;;;;;;;28.73;15.50;;;;;;;;;;6229956;23;20000;-94
2022/03/06 05:49:13;;;;;;;24.48;14.23;;;;;;;;;;6229783;23;20405;-93
2022/03/06 05:51:40;;;;;;;23.55;14.02;;;;;;;;;;6229565;23;20005;-93
2022/03/06 05:54:07;;;;;;;22.38;13.30;;;;;;;;;;6228579;23;20001;-93
2022/03/06 05:56:33;;;;;;;22.67;13.30;;;;;;;;;;6229460;23;19996;-92
2022/03/06 05:59:00;;;;;;;24.25;13.25;;;;;;;;;;6229598;23;20283;-93
2022/03/06 06:01:29;;;;;;;22.65;13.07;;;;;;;;;;6229007;23;20047;-94
2022/03/06 06:03:55;;;;;;;29.55;14.68;;;;;;;;;;6229316;23;20004;-93
2022/03/06 06:06:21;;;;;;;28.70;15.50;;;;;;;;;;6229386;23;20078;-95
2022/03/06 06:17:58;;;;;;;27.35;14.38;;;;;;;;;;6229414;23;20004;-94
2022/03/06 06:20:24;;;;;;;27.60;13.95;;;;;;;;;;6228211;23;20032;-96
2022/03/06 06:22:53;;;;;;;25.67;14.18;;;;;;;;;;6229370;23;20080;-93
2022/03/06 06:25:19;;;;;;;21.67;12.70;;;;;;;;;;6229949;23;20004;-94
2022/03/06 06:27:45;;;;;;;25.17;13.75;;;;;;;;;;6228782;23;20039;-95
2022/03/06 06:30:11;;;;;;;25.17;14.50;;;;;;;;;;6228185;23;20004;-95
2022/03/06 06:32:37;;;;;;;25.77;14.00;;;;;;;;;;6227938;23;20259;-95
2022/03/06 06:35:03;;;;;;;29.50;15.75;;;;;;;;;;6222192;23;20009;-95
2022/03/06 06:40:34;;;;;;;27.80;14.77;;;;;;;;;;6222460;23;19999;-94
2022/03/06 06:43:00;;;;;;;26.95;14.48;;;;;;;;;;6222354;23;20382;-93
2022/03/06 06:45:26;;;;;;;24.70;14.13;;;;;;;;;;6220711;23;20004;-92
2022/03/06 06:47:52;;;;;;;27.77;16.08;;;;;;;;;;6222163;23;20000;-93
2022/03/06 06:50:18;;;;;;;26.80;15.38;;;;;;;;;;6222415;23;20009;-94
2022/03/06 06:56:03;;;;;;;24.75;14.75;;;;;;;;;;6222442;23;20434;-93
2022/03/06 06:58:29;;;;;;;31.88;16.08;;;;;;;;;;6221124;23;20001;-93
2022/03/06 07:00:55;;;;;;;35.22;19.00;;;;;;;;;;6221340;23;20382;-93
2022/03/06 07:03:21;;;;;;;38.08;21.38;;;;;;;;;;6220568;23;20291;-94
2022/03/06 07:05:48;;;;;;;58.55;25.25;;;;;;;;;;6222729;23;20288;-95
2022/03/06 07:08:14;;;;;;;54.42;25.75;;;;;;;;;;6222572;23;20001;-93
2022/03/06 07:10:40;;;;;;;40.63;21.90;;;;;;;;;;6220575;23;20047;-94
2022/03/06 07:13:06;;;;;;;32.95;17.75;;;;;;;;;;6222073;23;20005;-94
2022/03/06 07:15:33;;;;;;;46.92;22.60;;;;;;;;;;6222065;23;20271;-92
2022/03/06 07:17:59;;;;;;;41.60;20.50;;;;;;;;;;6222127;23;20005;-93
2022/03/06 07:20:26;;;;;;;39.75;21.50;;;;;;;;;;6222224;23;20005;-95
2022/03/06 07:22:52;;;;;;;32.88;17.63;;;;;;;;;;6222053;23;20004;-93
2022/03/06 07:25:18;;;;;;;34.20;18.58;;;;;;;;;;6222162;23;20031;-93
2022/03/06 07:27:44;;;;;;;32.05;17.65;;;;;;;;;;6221799;23;20001;-92
2022/03/06 07:30:11;;;;;;;35.03;18.13;;;;;;;;;;6222337;23;20024;-93
2022/03/06 07:32:41;;;;;;;42.28;20.80;;;;;;;;;;6220028;23;20005;-93
2022/03/06 07:35:07;;;;;;;33.72;18.15;;;;;;;;;;6221892;23;20017;-95
2022/03/06 07:37:53;;;;;;;27.67;16.25;;;;;;;;;;6220992;23;20008;-93
2022/03/06 07:40:20;;;;;;;26.73;15.90;;;;;;;;;;6221706;23;20001;-94
2022/03/06 07:42:47;;;;;;;27.13;15.75;;;;;;;;;;6221970;23;20005;-94
2022/03/06 07:45:13;;;;;;;25.55;15.38;;;;;;;;;;6221628;23;20005;-92
2022/03/06 07:47:40;;;;;;;54.88;21.85;;;;;;;;;;6221766;23;20259;-93
2022/03/06 07:50:07;;;;;;;57.28;23.63;;;;;;;;;;6220214;23;20009;-92
2022/03/06 07:52:34;;;;;;;81.13;28.50;;;;;;;;;;6222011;23;20013;-94
2022/03/06 07:55:00;;;;;;;46.65;22.25;;;;;;;;;;6222271;23;20012;-91
2022/03/06 07:57:26;;;;;;;30.50;17.23;;;;;;;;;;6219754;23;20047;-94
2022/03/06 07:59:52;;;;;;;36.58;19.75;;;;;;;;;;6221547;23;20079;-95
2022/03/06 08:02:18;;;;;;;34.95;19.60;;;;;;;;;;6222088;23;20035;-95
2022/03/06 08:04:44;;;;;;;47.83;24.98;;;;;;;;;;6221616;23;20024;-95
2022/03/06 08:07:29;;;;;;;38.47;19.98;;;;;;;;;;6219843;23;20016;-94
2022/03/06 08:09:55;;;;;;;38.90;20.40;;;;;;;;;;6222151;23;20370;-95
2022/03/06 08:12:26;;;;;;;38.25;20.55;;;;;;;;;;6221831;23;20080;-96
2022/03/06 08:14:52;;;;;;;39.20;20.48;;;;;;;;;;6221794;23;20001;-96
2022/03/06 08:17:19;;;;;;;39.40;22.67;;;;;;;;;;6221990;23;20001;-95
2022/03/06 08:19:46;;;;;;;36.97;22.10;;;;;;;;;;6221392;23;20008;-93
2022/03/06 08:22:12;;;;;;;44.22;25.50;;;;;;;;;;6221602;23;20023;-93
2022/03/06 08:24:38;;;;;;;54.60;32.40;;;;;;;;;;6220017;23;20030;-93
2022/03/06 08:27:04;;;;;;;73.07;43.03;;;;;;;;;;6221665;23;20031;-95
2022/03/06 08:29:31;;;;;;;58.33;34.85;;;;;;;;;;6219780;23;20004;-94
2022/03/06 08:31:57;;;;;;;52.40;31.52;;;;;;;;;;6221353;23;20079;-94
2022/03/06 08:34:23;;;;;;;51.35;30.40;;;;;;;;;;6219898;23;20091;-93
2022/03/06 08:36:49;;;;;;;44.50;24.50;;;;;;;;;;6221358;23;20009;-94
2022/03/06 08:42:39;;;;;;;46.97;26.38;;;;;;;;;;6221050;23;20076;-93
2022/03/06 08:45:05;;;;;;;41.10;23.85;;;;;;;;;;6221251;23;20072;-95
2022/03/06 08:47:31;;;;;;;47.22;26.02;;;;;;;;;;6219913;23;20012;-93
2022/03/06 08:49:57;;;;;;;48.88;25.63;;;;;;;;;;6219685;23;20004;-93
2022/03/06 08:58:30;;;;;;;52.28;28.75;;;;;;;;;;6221278;23;20369;-92
2022/03/06 09:00:57;;;;;;;54.97;27.63;;;;;;;;;;6221609;23;20023;-93
2022/03/06 09:03:23;;;;;;;45.67;23.38;;;;;;;;;;6194706;23;20020;-93
2022/03/06 09:05:49;;;;;;;47.22;23.42;;;;;;;;;;6219320;23;20016;-95
2022/03/06 09:08:15;;;;;;;43.08;21.92;;;;;;;;;;6220029;23;19997;-95
2022/03/06 09:10:41;;;;;;;33.80;20.38;;;;;;;;;;6219939;23;20036;-96
2022/03/06 09:13:08;;;;;;;41.53;23.88;;;;;;;;;;6220993;23;20397;-95
2022/03/06 09:15:35;;;;;;;39.03;22.40;;;;;;;;;;6219918;23;19993;-93
2022/03/06 09:18:01;;;;;;;40.17;24.27;;;;;;;;;;6221212;23;20001;-95
2022/03/06 09:20:27;;;;;;;41.00;23.52;;;;;;;;;;6221110;23;20001;-95
2022/03/06 09:23:14;;;;;;;36.05;22.75;;;;;;;;;;6221550;23;20001;-94
2022/03/06 09:25:40;;;;;;;41.78;23.50;;;;;;;;;;6219751;23;20287;-95
2022/03/06 09:28:06;;;;;;;42.28;25.40;;;;;;;;;;6219774;23;20008;-96
2022/03/06 09:30:32;;;;;;;40.10;24.80;;;;;;;;;;6221077;23;20409;-95
2022/03/06 09:32:58;;;;;;;50.28;27.45;;;;;;;;;;6221009;23;20031;-95
2022/03/06 09:35:24;;;;;;;55.03;28.70;;;;;;;;;;6221076;23;20019;-95
2022/03/06 09:40:54;;;;;;;47.45;25.60;;;;;;;;;;6220947;23;20127;-95
2022/03/06 09:43:20;;;;;;;51.95;27.25;;;;;;;;;;6221263;23;19997;-95
2022/03/06 09:45:47;;;;;;;41.70;24.13;;;;;;;;;;6221403;23;20001;-94
2022/03/06 09:48:15;;;;;;;43.22;24.63;;;;;;;;;;6219820;23;20008;-93
2022/03/06 09:50:42;;;;;;;39.10;23.95;;;;;;;;;;6221008;23;20426;-94
2022/03/06 09:56:12;;;;;;;47.15;26.17;;;;;;;;;;6220944;23;20051;-96
2022/03/06 09:58:38;;;;;;;40.25;23.75;;;;;;;;;;6219283;23;20282;-95
2022/03/06 10:01:04;;;;;;;36.38;23.55;;;;;;;;;;6221129;23;20000;-96
2022/03/06 10:03:35;;;;;;;36.75;22.45;;;;;;;;;;6220650;23;20016;-94
2022/03/06 10:06:04;;;;;;;42.17;25.33;;;;;;;;;;6221418;23;19993;-93
2022/03/06 10:11:33;;;;;;;45.33;25.08;;;;;;;;;;6223126;23;20381;-95
2022/03/06 10:13:59;;;;;;;33.30;21.42;;;;;;;;;;6222165;23;20408;-95
2022/03/06 10:16:26;;;;;;;35.22;22.05;;;;;;;;;;6223091;23;20012;-95
2022/03/06 10:18:53;;;;;;;47.65;27.58;;;;;;;;;;6222584;23;20011;-94
2022/03/06 10:21:29;;;;;;;46.00;24.55;;;;;;;;;;6223671;23;20255;-94
2022/03/06 10:24:00;;;;;;;36.03;23.38;;;;;;;;;;6221067;23;20062;-92
2022/03/06 10:26:32;;;;;;;38.53;22.85;;;;;;;;;;6221524;23;20005;-94
2022/03/06 10:28:58;;;;;;;44.13;23.48;;;;;;;;;;6222683;23;20000;-93
2022/03/06 10:31:26;;;;;;;58.72;30.55;;;;;;;;;;6221356;23;20357;-94
2022/03/06 10:33:56;;;;;;;51.92;28.58;;;;;;;;;;6222280;23;20012;-94
2022/03/06 10:36:32;;;;;;;45.17;26.65;;;;;;;;;;6222743;23;20040;-92
2022/03/06 10:38:58;;;;;;;35.30;22.95;;;;;;;;;;6221339;23;20003;-94
2022/03/06 10:41:33;;;;;;;37.50;23.17;;;;;;;;;;6222441;23;20442;-94
2022/03/06 10:43:59;;;;;;;48.35;23.48;;;;;;;;;;6220932;23;20095;-94
2022/03/06 10:46:25;;;;;;;46.42;25.85;;;;;;;;;;6222662;23;20389;-92
2022/03/06 10:48:56;;;;;;;36.38;23.50;;;;;;;;;;6222964;23;20016;-93
2022/03/06 10:51:22;;;;;;;42.92;25.17;;;;;;;;;;6222608;23;20008;-94
2022/03/06 10:53:52;;;;;;;35.80;22.48;;;;;;;;;;6221258;23;20005;-93
2022/03/06 10:56:20;;;;;;;44.42;24.83;;;;;;;;;;6222708;23;20007;-92
2022/03/06 10:58:46;;;;;;;42.80;24.95;;;;;;;;;;6222200;23;20120;-94
2022/03/06 11:01:13;;;;;;;34.15;21.55;;;;;;;;;;6222214;23;20008;-93
2022/03/06 11:03:39;;;;;;;35.95;23.02;;;;;;;;;;6222139;23;20013;-93
2022/03/06 11:06:09;;;;;;;37.60;23.75;;;;;;;;;;6220577;23;20004;-92
2022/03/06 11:08:36;;;;;;;32.78;21.60;;;;;;;;;;6222193;23;20374;-93
2022/03/06 11:11:05;;;;;;;34.95;21.02;;;;;;;;;;6222444;23;20005;-92
2022/03/06 11:13:31;;;;;;;34.08;21.38;;;;;;;;;;6222016;23;20359;-93
2022/03/06 11:15:58;;;;;;;33.08;20.92;;;;;;;;;;6221038;23;20001;-93
2022/03/06 11:18:25;;;;;;;36.72;23.17;;;;;;;;;;6220314;23;20000;-94
2022/03/06 11:20:52;;;;;;;37.67;22.33;;;;;;;;;;6222036;23;20001;-93
2022/03/06 11:23:36;;;;;;;32.28;20.42;;;;;;;;;;6195711;23;20388;-92
2022/03/06 11:26:02;;;;;;;32.00;20.50;;;;;;;;;;6222410;23;20011;-94
2022/03/06 11:28:44;;;;;;;36.70;23.77;;;;;;;;;;6222017;23;20052;-94
2022/03/06 11:31:10;;;;;;;34.97;21.05;;;;;;;;;;6222136;23;19997;-94
2022/03/06 11:33:41;;;;;;;35.67;21.20;;;;;;;;;;6221505;23;20004;-92
2022/03/06 11:36:21;;;;;;;31.55;20.77;;;;;;;;;;6222751;23;20016;-93
2022/03/06 11:38:48;;;;;;;30.15;20.88;;;;;;;;;;6220209;23;20001;-94
2022/03/06 11:41:15;;;;;;;34.65;21.48;;;;;;;;;;6222289;23;20001;-94
2022/03/06 11:43:47;;;;;;;33.22;20.10;;;;;;;;;;6222088;23;20115;-94
2022/03/06 11:46:20;;;;;;;30.70;20.27;;;;;;;;;;6221729;23;20000;-94
2022/03/06 11:48:46;;;;;;;29.33;20.10;;;;;;;;;;6220841;23;20127;-92
2022/03/06 11:51:12;;;;;;;32.40;20.40;;;;;;;;;;6220938;23;20352;-87
2022/03/06 11:54:06;;;;;;;35.63;21.17;;;;;;;;;;6221321;23;20043;-92
2022/03/06 11:56:38;;;;;;;35.92;22.58;;;;;;;;;;6220721;23;20080;-94
2022/03/06 11:59:04;;;;;;;37.10;23.45;;;;;;;;;;6221526;23;20012;-93
2022/03/06 12:01:34;;;;;;;35.95;23.13;;;;;;;;;;6221547;23;20363;-95
2022/03/06 12:04:11;;;;;;;37.67;22.70;;;;;;;;;;6221473;23;20355;-93
2022/03/06 12:06:41;;;;;;;37.83;24.25;;;;;;;;;;6222282;23;20005;-90
2022/03/06 12:12:12;;;;;;;37.13;23.70;;;;;;;;;;6221727;23;20382;-89
2022/03/06 12:14:38;;;;;;;51.53;28.80;;;;;;;;;;6220273;23;20011;-89
2022/03/06 12:17:06;;;;;;;41.22;24.90;;;;;;;;;;6220578;23;20088;-94
2022/03/06 12:19:41;;;;;;;37.58;24.67;;;;;;;;;;6220975;23;20000;-94
2022/03/06 12:22:10;;;;;;;43.55;24.33;;;;;;;;;;6221897;23;20028;-92
2022/03/06 12:24:37;;;;;;;38.83;24.40;;;;;;;;;;6221907;23;20007;-94
2022/03/06 12:27:16;;;;;;;40.90;25.85;;;;;;;;;;6222034;23;20035;-93
2022/03/06 12:29:48;;;;;;;38.28;23.95;;;;;;;;;;6221671;23;20086;-92
2022/03/06 12:32:27;;;;;;;38.53;24.17;;;;;;;;;;6221752;23;20031;-92
2022/03/06 12:34:59;;;;;;;39.97;24.50;;;;;;;;;;6221176;23;20023;-93
2022/03/06 12:37:29;;;;;;;40.97;25.00;;;;;;;;;;6219287;23;20000;-93
2022/03/06 12:39:55;;;;;;;41.00;25.80;;;;;;;;;;6221478;23;20013;-93
2022/03/06 12:42:26;;;;;;;38.53;24.38;;;;;;;;;;6221505;23;20008;-93
2022/03/06 12:44:53;;;;;;;41.05;25.08;;;;;;;;;;6221237;23;20009;-93
2022/03/06 12:47:19;;;;;;;45.58;26.65;;;;;;;;;;6221381;23;20375;-94
2022/03/06 12:49:46;;;;;;;48.47;28.35;;;;;;;;;;6220900;23;20008;-94
2022/03/06 12:52:15;;;;;;;46.10;27.63;;;;;;;;;;6219399;23;20036;-93
2022/03/06 12:54:42;;;;;;;39.22;24.73;;;;;;;;;;6221175;23;20047;-92
2022/03/06 12:57:08;;;;;;;38.70;24.95;;;;;;;;;;6220841;23;20020;-93
2022/03/06 12:59:39;;;;;;;34.78;23.83;;;;;;;;;;6221096;23;20087;-94
2022/03/06 13:02:06;;;;;;;33.22;23.25;;;;;;;;;;6221654;23;20022;-94
2022/03/06 13:04:34;;;;;;;32.03;21.85;;;;;;;;;;6221766;23;20019;-94
2022/03/06 13:07:00;;;;;;;37.08;23.80;;;;;;;;;;6221686;23;20005;-95
2022/03/06 13:09:30;;;;;;;40.55;24.85;;;;;;;;;;6221497;23;20259;-93
2022/03/06 13:11:56;;;;;;;36.80;24.38;;;;;;;;;;6219965;23;20112;-94
2022/03/06 13:14:31;;;;;;;38.88;25.00;;;;;;;;;;6220991;23;20079;-93
2022/03/06 13:17:18;;;;;;;38.58;23.50;;;;;;;;;;6221087;23;20000;-94
2022/03/06 13:19:49;;;;;;;37.95;24.63;;;;;;;;;;6221400;23;20004;-94
2022/03/06 13:22:16;;;;;;;45.40;29.80;;;;;;;;;;6219284;23;20397;-93
2022/03/06 13:24:44;;;;;;;53.15;31.45;;;;;;;;;;6219868;23;20005;-92
2022/03/06 13:27:12;;;;;;;39.78;25.92;;;;;;;;;;6219780;23;20036;-92
2022/03/06 13:29:38;;;;;;;51.33;29.65;;;;;;;;;;6219851;23;20262;-93
2022/03/06 13:32:04;;;;;;;46.97;29.60;;;;;;;;;;6221096;23;20000;-93
2022/03/06 13:34:41;;;;;;;44.25;28.50;;;;;;;;;;6220779;23;20013;-93
2022/03/06 13:37:07;;;;;;;40.83;26.73;;;;;;;;;;6220710;23;20000;-92
2022/03/06 13:39:34;;;;;;;44.92;28.13;;;;;;;;;;6219213;23;20001;-92
2022/03/06 13:42:00;;;;;;;63.45;44.05;;;;;;;;;;6220769;23;20068;-93
2022/03/06 13:44:26;;;;;;;130.45;99.85;;;;;;;;;;6222487;23;20005;-94
2022/03/06 13:46:52;;;;;;;67.30;45.67;;;;;;;;;;6223434;23;20004;-93
2022/03/06 13:49:21;;;;;;;46.47;31.20;;;;;;;;;;6222807;23;20008;-92
2022/03/06 13:51:53;;;;;;;46.30;31.00;;;;;;;;;;6223218;23;20063;-93
2022/03/06 13:54:19;;;;;;;52.25;31.70;;;;;;;;;;6223139;23;20004;-93
2022/03/06 13:56:45;;;;;;;47.45;29.38;;;;;;;;;;6223204;23;20024;-93
2022/03/06 13:59:13;;;;;;;45.13;28.95;;;;;;;;;;6223091;23;19997;-93
2022/03/06 14:01:39;;;;;;;53.75;33.35;;;;;;;;;;6222933;23;20013;-92
2022/03/06 14:04:07;;;;;;;55.15;32.92;;;;;;;;;;6223237;23;20059;-93
2022/03/06 14:06:40;;;;;;;47.67;31.42;;;;;;;;;;6223367;23;20030;-94
2022/03/06 14:12:10;;;;;;;43.45;28.52;;;;;;;;;;6222173;23;20015;-94
2022/03/06 14:14:38;;;;;;;42.40;28.63;;;;;;;;;;6222368;23;20022;-94
2022/03/06 14:17:04;;;;;;;55.22;32.67;;;;;;;;;;6222600;23;20363;-95
2022/03/06 14:19:30;;;;;;;50.05;31.77;;;;;;;;;;6222562;23;20020;-94
2022/03/06 14:21:56;;;;;;;46.58;29.70;;;;;;;;;;6222459;23;20359;-93
2022/03/06 14:24:22;;;;;;;43.85;29.58;;;;;;;;;;6220908;23;20008;-94
2022/03/06 14:26:50;;;;;;;41.13;26.45;;;;;;;;;;6221475;23;20004;-94
2022/03/06 14:29:27;;;;;;;40.53;27.13;;;;;;;;;;6222502;23;20005;-94
2022/03/06 14:31:54;;;;;;;39.75;27.05;;;;;;;;;;6220542;23;20275;-94
2022/03/06 14:34:22;;;;;;;43.88;28.02;;;;;;;;;;6221151;23;20016;-95
2022/03/06 14:36:48;;;;;;;42.83;26.17;;;;;;;;;;6222190;23;20001;-93
2022/03/06 14:39:14;;;;;;;42.13;27.70;;;;;;;;;;6222814;23;19996;-93
2022/03/06 14:41:40;;;;;;;43.53;29.73;;;;;;;;;;6221033;23;20359;-92
2022/03/06 14:44:07;;;;;;;39.83;26.50;;;;;;;;;;6220547;23;20005;-93
2022/03/06 14:46:33;;;;;;;46.78;27.67;;;;;;;;;;6222564;23;20032;-93
2022/03/06 14:48:59;;;;;;;43.08;27.52;;;;;;;;;;6222400;23;20011;-93
2022/03/06 14:51:26;;;;;;;37.08;24.42;;;;;;;;;;6221087;23;20306;-93
2022/03/06 15:00:02;;;;;;;46.97;28.00;;;;;;;;;;6221932;23;20055;-93
2022/03/06 15:02:28;;;;;;;40.53;23.55;;;;;;;;;;6222644;23;20004;-94
2022/03/06 15:04:54;;;;;;;39.78;24.13;;;;;;;;;;6220317;23;20009;-93
2022/03/06 15:07:20;;;;;;;50.63;27.35;;;;;;;;;;6221297;23;20032;-93
2022/03/06 15:12:50;;;;;;;37.67;23.60;;;;;;;;;;6221828;23;20445;-94
2022/03/06 15:15:16;;;;;;;35.05;23.20;;;;;;;;;;6221596;23;20429;-93
2022/03/06 15:17:42;;;;;;;36.17;23.35;;;;;;;;;;6222031;23;20363;-95
2022/03/06 15:20:08;;;;;;;35.92;22.65;;;;;;;;;;6221867;23;20359;-93
2022/03/06 15:22:34;;;;;;;34.13;22.90;;;;;;;;;;6220663;23;20012;-94
2022/03/06 15:28:04;;;;;;;89.47;32.47;;;;;;;;;;6221859;23;20028;-93
2022/03/06 15:30:30;;;;;;;46.08;24.17;;;;;;;;;;6221010;23;20004;-93
2022/03/06 15:32:56;;;;;;;46.28;25.00;;;;;;;;;;6220585;23;20100;-94